sensor_id;sensor_type;location;lat;lon;timestamp;pressure;altitude;pressure_sealevel;temperature;humidity
38880;BME280;25887;30.194;-97.880;2023-03-14T00:02:06;98818.47;;;22.04;28.44
38880;BME280;25887;30.194;-97.880;2023-03-14T00:04:32;98805.53;;;21.99;28.62
38880;BME280;25887;30.194;-97.880;2023-03-14T00:06:58;98812.72;;;21.94;28.72
38880;BME280;25887;30.194;-97.880;2023-03-14T00:09:25;98817.16;;;21.92;28.74
38880;BME280;25887;30.194;-97.880;2023-03-14T00:11:55;98811.22;;;21.88;28.96
38880;BME280;25887;30.194;-97.880;2023-03-14T00:14:21;98827.81;;;21.87;28.80
38880;BME280;25887;30.194;-97.880;2023-03-14T00:16:47;98827.91;;;21.84;28.97
38880;BME280;25887;30.194;-97.880;2023-03-14T00:19:14;98821.97;;;21.81;28.98
38880;BME280;25887;30.194;-97.880;2023-03-14T00:21:41;98823.78;;;21.79;29.16
38880;BME280;25887;30.194;-97.880;2023-03-14T00:24:08;98835.34;;;21.73;29.02
38880;BME280;25887;30.194;-97.880;2023-03-14T00:26:34;98820.72;;;21.67;29.06
38880;BME280;25887;30.194;-97.880;2023-03-14T00:29:00;98833.06;;;21.64;29.22
38880;BME280;25887;30.194;-97.880;2023-03-14T00:31:26;98834.88;;;21.62;29.17
38880;BME280;25887;30.194;-97.880;2023-03-14T00:50:43;98856.97;;;21.30;29.89
38880;BME280;25887;30.194;-97.880;2023-03-14T00:53:10;98866.63;;;21.28;30.05
38880;BME280;25887;30.194;-97.880;2023-03-14T00:55:40;98871.88;;;21.26;30.21
38880;BME280;25887;30.194;-97.880;2023-03-14T00:58:08;98868.44;;;21.24;29.83
38880;BME280;25887;30.194;-97.880;2023-03-14T01:00:36;98871.97;;;21.23;30.09
38880;BME280;25887;30.194;-97.880;2023-03-14T01:03:02;98879.03;;;21.21;30.13
38880;BME280;25887;30.194;-97.880;2023-03-14T01:05:29;98877.38;;;21.19;30.02
38880;BME280;25887;30.194;-97.880;2023-03-14T01:07:55;98885.31;;;21.15;30.18
38880;BME280;25887;30.194;-97.880;2023-03-14T01:10:22;98892.34;;;21.13;30.24
38880;BME280;25887;30.194;-97.880;2023-03-14T01:12:49;98894.19;;;21.11;30.26
38880;BME280;25887;30.194;-97.880;2023-03-14T01:15:15;98905.59;;;21.09;30.33
38880;BME280;25887;30.194;-97.880;2023-03-14T01:17:42;98903.00;;;21.07;30.32
38880;BME280;25887;30.194;-97.880;2023-03-14T01:20:44;98911.69;;;21.09;30.32
38880;BME280;25887;30.194;-97.880;2023-03-14T01:23:10;98913.59;;;21.04;30.33
38880;BME280;25887;30.194;-97.880;2023-03-14T01:25:45;98913.59;;;21.04;30.42
38880;BME280;25887;30.194;-97.880;2023-03-14T01:28:56;98915.28;;;21.05;30.53
38880;BME280;25887;30.194;-97.880;2023-03-14T01:31:38;98920.66;;;21.01;30.52
38880;BME280;25887;30.194;-97.880;2023-03-14T01:34:04;98915.53;;;20.98;30.68
38880;BME280;25887;30.194;-97.880;2023-03-14T01:36:36;98932.19;;;20.95;30.69
38880;BME280;25887;30.194;-97.880;2023-03-14T01:39:03;98940.03;;;20.95;30.67
38880;BME280;25887;30.194;-97.880;2023-03-14T01:41:32;98939.16;;;20.95;30.81
38880;BME280;25887;30.194;-97.880;2023-03-14T01:43:58;98925.34;;;20.91;30.74
38880;BME280;25887;30.194;-97.880;2023-03-14T01:54:21;98923.03;;;20.82;30.92
38880;BME280;25887;30.194;-97.880;2023-03-14T01:56:58;98923.16;;;20.79;31.02
38880;BME280;25887;30.194;-97.880;2023-03-14T01:59:26;98926.69;;;20.76;31.18
38880;BME280;25887;30.194;-97.880;2023-03-14T02:01:55;98917.31;;;20.71;31.19
38880;BME280;25887;30.194;-97.880;2023-03-14T02:07:51;98930.47;;;20.68;31.35
38880;BME280;25887;30.194;-97.880;2023-03-14T02:10:22;98928.75;;;20.67;31.36
38880;BME280;25887;30.194;-97.880;2023-03-14T02:12:49;98930.50;;;20.66;31.46
38880;BME280;25887;30.194;-97.880;2023-03-14T02:15:16;98933.97;;;20.67;31.36
38880;BME280;25887;30.194;-97.880;2023-03-14T02:26:08;98962.25;;;20.52;31.45
38880;BME280;25887;30.194;-97.880;2023-03-14T02:28:35;98961.56;;;20.47;31.47
38880;BME280;25887;30.194;-97.880;2023-03-14T02:31:02;98973.78;;;20.47;31.55
38880;BME280;25887;30.194;-97.880;2023-03-14T02:33:31;98962.53;;;20.43;31.57
38880;BME280;25887;30.194;-97.880;2023-03-14T02:36:02;98965.19;;;20.42;31.58
38880;BME280;25887;30.194;-97.880;2023-03-14T02:38:41;98973.97;;;20.39;31.68
38880;BME280;25887;30.194;-97.880;2023-03-14T02:41:11;98962.84;;;20.33;31.71
38880;BME280;25887;30.194;-97.880;2023-03-14T02:43:38;98957.66;;;20.31;31.67
38880;BME280;25887;30.194;-97.880;2023-03-14T02:46:10;98959.56;;;20.26;31.71
38880;BME280;25887;30.194;-97.880;2023-03-14T02:48:50;98964.84;;;20.24;31.61
38880;BME280;25887;30.194;-97.880;2023-03-14T02:51:19;98976.22;;;20.22;31.52
38880;BME280;25887;30.194;-97.880;2023-03-14T02:53:46;98974.56;;;20.19;31.70
38880;BME280;25887;30.194;-97.880;2023-03-14T02:56:12;98974.59;;;20.18;31.75
38880;BME280;25887;30.194;-97.880;2023-03-14T02:58:38;98977.22;;;20.18;31.87
38880;BME280;25887;30.194;-97.880;2023-03-14T03:01:05;98975.56;;;20.14;31.81
38880;BME280;25887;30.194;-97.880;2023-03-14T03:03:32;98975.72;;;20.09;31.75
38880;BME280;25887;30.194;-97.880;2023-03-14T03:05:58;98974.88;;;20.09;31.59
38880;BME280;25887;30.194;-97.880;2023-03-14T03:08:27;98988.03;;;20.04;31.86
38880;BME280;25887;30.194;-97.880;2023-03-14T03:10:55;98989.06;;;19.98;31.82
38880;BME280;25887;30.194;-97.880;2023-03-14T03:13:22;98987.50;;;19.93;31.82
38880;BME280;25887;30.194;-97.880;2023-03-14T03:15:48;98986.72;;;19.89;31.92
38880;BME280;25887;30.194;-97.880;2023-03-14T03:18:15;98985.09;;;19.85;31.80
38880;BME280;25887;30.194;-97.880;2023-03-14T03:20:41;98984.31;;;19.82;31.81
38880;BME280;25887;30.194;-97.880;2023-03-14T03:23:07;98989.59;;;19.80;31.83
38880;BME280;25887;30.194;-97.880;2023-03-14T03:25:34;98998.38;;;19.76;31.95
38880;BME280;25887;30.194;-97.880;2023-03-14T03:28:00;98998.47;;;19.73;31.87
38880;BME280;25887;30.194;-97.880;2023-03-14T03:30:26;98995.97;;;19.70;31.95
38880;BME280;25887;30.194;-97.880;2023-03-14T03:32:52;98996.91;;;19.66;31.87
38880;BME280;25887;30.194;-97.880;2023-03-14T03:35:18;98997.91;;;19.62;31.89
38880;BME280;25887;30.194;-97.880;2023-03-14T03:37:45;98985.06;;;19.54;31.74
38880;BME280;25887;30.194;-97.880;2023-03-14T03:40:11;98986.00;;;19.50;31.70
38880;BME280;25887;30.194;-97.880;2023-03-14T03:42:39;98977.44;;;19.45;31.67
38880;BME280;25887;30.194;-97.880;2023-03-14T03:45:05;98976.69;;;19.41;31.62
38880;BME280;25887;30.194;-97.880;2023-03-14T03:47:32;98966.38;;;19.38;31.70
38880;BME280;25887;30.194;-97.880;2023-03-14T03:49:58;98958.59;;;19.35;31.72
38880;BME280;25887;30.194;-97.880;2023-03-14T03:52:24;98971.72;;;19.32;31.83
38880;BME280;25887;30.194;-97.880;2023-03-14T03:54:51;98967.44;;;19.30;31.91
38880;BME280;25887;30.194;-97.880;2023-03-14T03:57:17;98970.13;;;19.27;31.74
38880;BME280;25887;30.194;-97.880;2023-03-14T03:59:43;98965.91;;;19.21;32.02
38880;BME280;25887;30.194;-97.880;2023-03-14T04:02:10;98961.69;;;19.17;31.78
38880;BME280;25887;30.194;-97.880;2023-03-14T04:04:36;98956.53;;;19.14;31.91
38880;BME280;25887;30.194;-97.880;2023-03-14T04:07:04;98951.47;;;19.09;32.07
38880;BME280;25887;30.194;-97.880;2023-03-14T04:09:31;98962.75;;;19.10;32.03
38880;BME280;25887;30.194;-97.880;2023-03-14T04:11:57;98973.25;;;19.07;31.95
38880;BME280;25887;30.194;-97.880;2023-03-14T04:14:23;98980.16;;;19.08;32.17
38880;BME280;25887;30.194;-97.880;2023-03-14T04:16:50;98981.88;;;19.09;32.20
38880;BME280;25887;30.194;-97.880;2023-03-14T04:19:16;98981.06;;;19.07;32.30
38880;BME280;25887;30.194;-97.880;2023-03-14T04:21:42;98975.88;;;19.05;32.25
38880;BME280;25887;30.194;-97.880;2023-03-14T04:24:10;98980.31;;;19.02;32.01
38880;BME280;25887;30.194;-97.880;2023-03-14T04:26:36;98991.66;;;18.99;32.00
38880;BME280;25887;30.194;-97.880;2023-03-14T04:29:03;98989.16;;;18.95;32.10
38880;BME280;25887;30.194;-97.880;2023-03-14T04:31:29;98994.50;;;18.88;32.05
38880;BME280;25887;30.194;-97.880;2023-03-14T04:33:55;99002.44;;;18.84;31.82
38880;BME280;25887;30.194;-97.880;2023-03-14T04:36:21;99002.59;;;18.78;32.06
38880;BME280;25887;30.194;-97.880;2023-03-14T04:38:47;99007.84;;;18.75;32.05
38880;BME280;25887;30.194;-97.880;2023-03-14T04:41:14;99003.66;;;18.69;32.12
38880;BME280;25887;30.194;-97.880;2023-03-14T04:43:40;99015.81;;;18.67;32.09
38880;BME280;25887;30.194;-97.880;2023-03-14T04:46:06;99014.16;;;18.63;31.83
38880;BME280;25887;30.194;-97.880;2023-03-14T04:48:33;99005.53;;;18.61;32.19
38880;BME280;25887;30.194;-97.880;2023-03-14T04:50:59;98997.75;;;18.59;31.84
38880;BME280;25887;30.194;-97.880;2023-03-14T04:53:25;99003.06;;;18.55;32.15
38880;BME280;25887;30.194;-97.880;2023-03-14T04:55:54;98990.09;;;18.52;31.92
38880;BME280;25887;30.194;-97.880;2023-03-14T04:58:21;98996.19;;;18.52;32.20
38880;BME280;25887;30.194;-97.880;2023-03-14T05:00:48;98998.81;;;18.51;32.31
38880;BME280;25887;30.194;-97.880;2023-03-14T05:03:15;99000.59;;;18.49;32.16
38880;BME280;25887;30.194;-97.880;2023-03-14T05:05:41;99001.53;;;18.46;32.22
38880;BME280;25887;30.194;-97.880;2023-03-14T05:08:08;98999.00;;;18.42;32.03
38880;BME280;25887;30.194;-97.880;2023-03-14T05:11:09;99000.81;;;18.40;32.21
38880;BME280;25887;30.194;-97.880;2023-03-14T05:13:35;99008.81;;;18.30;31.99
38880;BME280;25887;30.194;-97.880;2023-03-14T05:16:06;99008.13;;;18.22;32.19
38880;BME280;25887;30.194;-97.880;2023-03-14T05:18:32;99009.09;;;18.17;32.08
38880;BME280;25887;30.194;-97.880;2023-03-14T05:20:59;99008.28;;;18.15;32.41
38880;BME280;25887;30.194;-97.880;2023-03-14T05:23:25;99015.25;;;18.11;32.30
38880;BME280;25887;30.194;-97.880;2023-03-14T05:25:52;99014.50;;;18.06;32.38
38880;BME280;25887;30.194;-97.880;2023-03-14T05:28:18;99017.13;;;18.04;32.38
38880;BME280;25887;30.194;-97.880;2023-03-14T05:30:44;99018.94;;;18.01;32.33
38880;BME280;25887;30.194;-97.880;2023-03-14T05:33:10;99017.28;;;17.98;32.44
38880;BME280;25887;30.194;-97.880;2023-03-14T05:35:36;99013.84;;;17.95;32.49
38880;BME280;25887;30.194;-97.880;2023-03-14T05:38:03;99009.63;;;17.91;32.09
38880;BME280;25887;30.194;-97.880;2023-03-14T05:40:29;99024.38;;;17.89;32.39
38880;BME280;25887;30.194;-97.880;2023-03-14T05:42:55;99024.47;;;17.84;32.32
38880;BME280;25887;30.194;-97.880;2023-03-14T05:45:21;99020.22;;;17.78;32.34
38880;BME280;25887;30.194;-97.880;2023-03-14T05:47:48;99024.66;;;17.75;32.40
38880;BME280;25887;30.194;-97.880;2023-03-14T05:50:14;99028.19;;;17.71;32.59
38880;BME280;25887;30.194;-97.880;2023-03-14T05:52:41;99033.38;;;17.69;32.69
38880;BME280;25887;30.194;-97.880;2023-03-14T05:55:07;99033.44;;;17.65;32.46
38880;BME280;25887;30.194;-97.880;2023-03-14T05:57:33;99040.41;;;17.63;32.74
38880;BME280;25887;30.194;-97.880;2023-03-14T06:00:00;99043.91;;;17.62;32.58
38880;BME280;25887;30.194;-97.880;2023-03-14T06:02:26;99039.59;;;17.61;32.65
38880;BME280;25887;30.194;-97.880;2023-03-14T06:04:52;99050.00;;;17.61;32.81
38880;BME280;25887;30.194;-97.880;2023-03-14T06:07:19;99046.56;;;17.57;32.66
38880;BME280;25887;30.194;-97.880;2023-03-14T06:09:45;99054.44;;;17.54;32.62
38880;BME280;25887;30.194;-97.880;2023-03-14T06:12:11;99057.94;;;17.50;32.58
38880;BME280;25887;30.194;-97.880;2023-03-14T06:14:37;99058.00;;;17.47;32.86
38880;BME280;25887;30.194;-97.880;2023-03-14T06:17:03;99042.53;;;17.41;32.79
38880;BME280;25887;30.194;-97.880;2023-03-14T06:19:30;99053.84;;;17.38;32.75
38880;BME280;25887;30.194;-97.880;2023-03-14T06:21:56;99050.41;;;17.35;32.99
38880;BME280;25887;30.194;-97.880;2023-03-14T06:24:22;99056.47;;;17.35;32.77
38880;BME280;25887;30.194;-97.880;2023-03-14T06:26:48;99053.09;;;17.30;32.97
38880;BME280;25887;30.194;-97.880;2023-03-14T06:29:14;99060.09;;;17.25;32.75
38880;BME280;25887;30.194;-97.880;2023-03-14T06:31:40;99059.28;;;17.23;32.80
38880;BME280;25887;30.194;-97.880;2023-03-14T06:34:07;99057.59;;;17.20;33.07
38880;BME280;25887;30.194;-97.880;2023-03-14T06:36:33;99061.06;;;17.18;32.72
38880;BME280;25887;30.194;-97.880;2023-03-14T06:38:59;99064.63;;;17.14;32.96
38880;BME280;25887;30.194;-97.880;2023-03-14T06:41:25;99067.28;;;17.09;32.93
38880;BME280;25887;30.194;-97.880;2023-03-14T06:43:52;99073.38;;;17.07;33.05
38880;BME280;25887;30.194;-97.880;2023-03-14T06:46:18;99080.34;;;17.03;32.98
38880;BME280;25887;30.194;-97.880;2023-03-14T06:48:45;99083.91;;;16.97;32.92
38880;BME280;25887;30.194;-97.880;2023-03-14T06:51:11;99083.06;;;16.94;33.17
38880;BME280;25887;30.194;-97.880;2023-03-14T06:53:39;99084.91;;;16.89;33.26
38880;BME280;25887;30.194;-97.880;2023-03-14T06:56:05;99084.94;;;16.86;33.28
38880;BME280;25887;30.194;-97.880;2023-03-14T06:58:33;99084.13;;;16.82;33.28
38880;BME280;25887;30.194;-97.880;2023-03-14T07:00:59;99086.81;;;16.75;33.22
38880;BME280;25887;30.194;-97.880;2023-03-14T07:03:26;99087.72;;;16.70;33.19
38880;BME280;25887;30.194;-97.880;2023-03-14T07:05:55;99089.50;;;16.67;33.10
38880;BME280;25887;30.194;-97.880;2023-03-14T07:08:21;99080.91;;;16.60;33.17
38880;BME280;25887;30.194;-97.880;2023-03-14T07:10:47;99074.06;;;16.55;33.33
38880;BME280;25887;30.194;-97.880;2023-03-14T07:13:13;99073.25;;;16.53;33.22
38880;BME280;25887;30.194;-97.880;2023-03-14T07:15:39;99077.59;;;16.51;33.26
38880;BME280;25887;30.194;-97.880;2023-03-14T07:18:06;99082.78;;;16.49;33.24
38880;BME280;25887;30.194;-97.880;2023-03-14T07:20:32;99080.25;;;16.46;33.40
38880;BME280;25887;30.194;-97.880;2023-03-14T07:22:58;99081.16;;;16.43;33.41
38880;BME280;25887;30.194;-97.880;2023-03-14T07:25:28;99076.84;;;16.41;33.44
38880;BME280;25887;30.194;-97.880;2023-03-14T07:27:55;99078.59;;;16.39;33.48
38880;BME280;25887;30.194;-97.880;2023-03-14T07:30:21;99089.00;;;16.37;33.39
38880;BME280;25887;30.194;-97.880;2023-03-14T07:32:47;99082.13;;;16.35;33.32
38880;BME280;25887;30.194;-97.880;2023-03-14T07:35:13;99083.84;;;16.33;33.23
38880;BME280;25887;30.194;-97.880;2023-03-14T07:37:39;99078.72;;;16.30;33.38
38880;BME280;25887;30.194;-97.880;2023-03-14T07:40:06;99074.41;;;16.26;33.34
38880;BME280;25887;30.194;-97.880;2023-03-14T07:42:32;99068.47;;;16.19;33.70
38880;BME280;25887;30.194;-97.880;2023-03-14T07:44:59;99074.59;;;16.13;33.47
38880;BME280;25887;30.194;-97.880;2023-03-14T07:47:25;99069.47;;;16.07;33.39
38880;BME280;25887;30.194;-97.880;2023-03-14T07:49:51;99073.84;;;16.04;33.37
38880;BME280;25887;30.194;-97.880;2023-03-14T07:52:17;99057.44;;;16.00;33.72
38880;BME280;25887;30.194;-97.880;2023-03-14T07:54:43;99057.47;;;15.97;33.57
38880;BME280;25887;30.194;-97.880;2023-03-14T07:57:09;99056.66;;;15.92;33.74
38880;BME280;25887;30.194;-97.880;2023-03-14T07:59:36;99049.78;;;15.90;33.74
38880;BME280;25887;30.194;-97.880;2023-03-14T08:02:02;99046.34;;;15.86;33.61
38880;BME280;25887;30.194;-97.880;2023-03-14T08:04:31;99042.97;;;15.81;33.67
38880;BME280;25887;30.194;-97.880;2023-03-14T08:06:58;99041.25;;;15.80;33.72
38880;BME280;25887;30.194;-97.880;2023-03-14T08:09:24;99039.56;;;15.76;33.84
38880;BME280;25887;30.194;-97.880;2023-03-14T08:11:51;99047.34;;;15.74;33.82
38880;BME280;25887;30.194;-97.880;2023-03-14T08:14:17;99044.78;;;15.73;34.00
38880;BME280;25887;30.194;-97.880;2023-03-14T08:16:43;99049.09;;;15.71;33.67
38880;BME280;25887;30.194;-97.880;2023-03-14T08:19:09;99055.16;;;15.70;34.01
38880;BME280;25887;30.194;-97.880;2023-03-14T08:21:36;99044.84;;;15.67;33.82
38880;BME280;25887;30.194;-97.880;2023-03-14T08:24:02;99042.25;;;15.64;33.85
38880;BME280;25887;30.194;-97.880;2023-03-14T08:26:28;99028.50;;;15.58;33.76
38880;BME280;25887;30.194;-97.880;2023-03-14T08:28:54;99032.84;;;15.56;34.01
38880;BME280;25887;30.194;-97.880;2023-03-14T08:31:21;99038.03;;;15.52;33.82
38880;BME280;25887;30.194;-97.880;2023-03-14T08:33:47;99030.31;;;15.47;33.85
38880;BME280;25887;30.194;-97.880;2023-03-14T08:36:13;99031.19;;;15.46;34.07
38880;BME280;25887;30.194;-97.880;2023-03-14T08:38:40;99030.38;;;15.43;33.97
38880;BME280;25887;30.194;-97.880;2023-03-14T08:41:08;99032.09;;;15.41;34.10
38880;BME280;25887;30.194;-97.880;2023-03-14T08:43:34;99039.91;;;15.36;34.15
38880;BME280;25887;30.194;-97.880;2023-03-14T08:46:02;99034.75;;;15.36;34.14
38880;BME280;25887;30.194;-97.880;2023-03-14T08:48:29;99039.06;;;15.34;34.38
38880;BME280;25887;30.194;-97.880;2023-03-14T08:51:03;99044.28;;;15.29;34.26
38880;BME280;25887;30.194;-97.880;2023-03-14T08:53:29;99046.06;;;15.26;34.03
38880;BME280;25887;30.194;-97.880;2023-03-14T08:55:55;99051.22;;;15.24;34.18
38880;BME280;25887;30.194;-97.880;2023-03-14T08:58:22;99048.66;;;15.23;34.21
38880;BME280;25887;30.194;-97.880;2023-03-14T09:00:49;99052.97;;;15.21;34.19
38880;BME280;25887;30.194;-97.880;2023-03-14T09:03:15;99052.97;;;15.21;34.15
38880;BME280;25887;30.194;-97.880;2023-03-14T09:05:41;99069.38;;;15.20;34.25
38880;BME280;25887;30.194;-97.880;2023-03-14T09:08:08;99066.81;;;15.18;34.31
38880;BME280;25887;30.194;-97.880;2023-03-14T09:10:34;99065.06;;;15.17;34.25
38880;BME280;25887;30.194;-97.880;2023-03-14T09:13:00;99065.97;;;15.18;34.28
38880;BME280;25887;30.194;-97.880;2023-03-14T09:15:26;99055.59;;;15.18;34.25
38880;BME280;25887;30.194;-97.880;2023-03-14T09:17:53;99048.69;;;15.17;34.38
38880;BME280;25887;30.194;-97.880;2023-03-14T09:20:19;99046.97;;;15.16;34.43
38880;BME280;25887;30.194;-97.880;2023-03-14T09:22:45;99061.69;;;15.12;34.49
38880;BME280;25887;30.194;-97.880;2023-03-14T09:25:11;99071.19;;;15.12;34.44
38880;BME280;25887;30.194;-97.880;2023-03-14T09:27:37;99061.69;;;15.09;34.42
38880;BME280;25887;30.194;-97.880;2023-03-14T09:30:04;99063.41;;;15.09;34.38
38880;BME280;25887;30.194;-97.880;2023-03-14T09:32:31;99058.28;;;15.05;34.39
38880;BME280;25887;30.194;-97.880;2023-03-14T09:34:57;99053.13;;;15.01;34.40
38880;BME280;25887;30.194;-97.880;2023-03-14T09:37:24;99053.16;;;14.98;34.59
38880;BME280;25887;30.194;-97.880;2023-03-14T09:39:50;99046.25;;;14.94;34.45
38880;BME280;25887;30.194;-97.880;2023-03-14T09:42:23;99045.41;;;14.93;34.50
38880;BME280;25887;30.194;-97.880;2023-03-14T09:45:03;99052.31;;;14.91;34.51
38880;BME280;25887;30.194;-97.880;2023-03-14T09:47:34;99048.03;;;14.86;34.54
38880;BME280;25887;30.194;-97.880;2023-03-14T09:50:01;99047.25;;;14.79;34.75
38880;BME280;25887;30.194;-97.880;2023-03-14T09:52:32;99050.72;;;14.75;34.49
38880;BME280;25887;30.194;-97.880;2023-03-14T09:55:21;99060.19;;;14.74;34.55
38880;BME280;25887;30.194;-97.880;2023-03-14T09:57:50;99068.84;;;14.69;34.85
38880;BME280;25887;30.194;-97.880;2023-03-14T10:00:23;99074.03;;;14.67;34.80
38880;BME280;25887;30.194;-97.880;2023-03-14T10:02:55;99077.50;;;14.66;34.63
38880;BME280;25887;30.194;-97.880;2023-03-14T10:05:24;99087.00;;;14.64;34.64
38880;BME280;25887;30.194;-97.880;2023-03-14T10:07:52;99086.13;;;14.62;34.63
38880;BME280;25887;30.194;-97.880;2023-03-14T10:10:24;99083.53;;;14.61;34.89
38880;BME280;25887;30.194;-97.880;2023-03-14T10:13:10;99089.56;;;14.61;34.70
38880;BME280;25887;30.194;-97.880;2023-03-14T10:15:40;99092.19;;;14.57;34.89
38880;BME280;25887;30.194;-97.880;2023-03-14T10:18:11;99087.00;;;14.55;35.00
38880;BME280;25887;30.194;-97.880;2023-03-14T10:20:46;99083.56;;;14.55;34.92
38880;BME280;25887;30.194;-97.880;2023-03-14T10:25:41;99075.84;;;14.47;34.83
38880;BME280;25887;30.194;-97.880;2023-03-14T10:28:39;99081.88;;;14.49;34.91
38880;BME280;25887;30.194;-97.880;2023-03-14T10:31:06;99075.84;;;14.42;34.99
38880;BME280;25887;30.194;-97.880;2023-03-14T10:33:34;99076.72;;;14.38;34.76
38880;BME280;25887;30.194;-97.880;2023-03-14T10:36:17;99081.03;;;14.36;35.15
38880;BME280;25887;30.194;-97.880;2023-03-14T10:38:45;99075.03;;;14.34;34.94
38880;BME280;25887;30.194;-97.880;2023-03-14T10:41:23;99082.78;;;14.31;35.15
38880;BME280;25887;30.194;-97.880;2023-03-14T10:43:52;99094.00;;;14.29;35.19
38880;BME280;25887;30.194;-97.880;2023-03-14T10:46:20;99093.13;;;14.28;35.34
38880;BME280;25887;30.194;-97.880;2023-03-14T10:48:46;99101.75;;;14.27;35.46
38880;BME280;25887;30.194;-97.880;2023-03-14T10:53:57;99112.97;;;14.25;35.05
38880;BME280;25887;30.194;-97.880;2023-03-14T10:56:25;99118.13;;;14.23;34.97
38880;BME280;25887;30.194;-97.880;2023-03-14T10:58:56;99123.28;;;14.23;35.34
38880;BME280;25887;30.194;-97.880;2023-03-14T11:04:42;99127.63;;;14.21;35.40
38880;BME280;25887;30.194;-97.880;2023-03-14T11:26:37;99137.13;;;14.07;35.55
38880;BME280;25887;30.194;-97.880;2023-03-14T11:31:54;99138.88;;;14.02;35.52
38880;BME280;25887;30.194;-97.880;2023-03-14T11:34:33;99134.56;;;14.02;35.68
38880;BME280;25887;30.194;-97.880;2023-03-14T11:37:06;99126.78;;;14.04;35.44
38880;BME280;25887;30.194;-97.880;2023-03-14T11:39:43;99140.56;;;14.06;35.50
38880;BME280;25887;30.194;-97.880;2023-03-14T11:42:38;99141.44;;;14.09;35.87
38880;BME280;25887;30.194;-97.880;2023-03-14T11:45:35;99147.47;;;14.10;35.50
38880;BME280;25887;30.194;-97.880;2023-03-14T11:48:38;99150.06;;;14.04;35.84
38880;BME280;25887;30.194;-97.880;2023-03-14T11:51:14;99162.97;;;14.04;35.77
38880;BME280;25887;30.194;-97.880;2023-03-14T11:53:59;99164.69;;;14.03;35.94
38880;BME280;25887;30.194;-97.880;2023-03-14T11:57:03;99168.13;;;14.04;35.78
38880;BME280;25887;30.194;-97.880;2023-03-14T12:13:53;99183.66;;;13.94;35.87
38880;BME280;25887;30.194;-97.880;2023-03-14T12:20:19;99199.16;;;13.94;35.84
38880;BME280;25887;30.194;-97.880;2023-03-14T12:40:10;99220.69;;;13.78;36.13
38880;BME280;25887;30.194;-97.880;2023-03-14T12:42:57;99225.81;;;13.77;36.19
38880;BME280;25887;30.194;-97.880;2023-03-14T12:45:32;99230.13;;;13.73;36.13
38880;BME280;25887;30.194;-97.880;2023-03-14T12:48:19;99237.03;;;13.74;36.35
38880;BME280;25887;30.194;-97.880;2023-03-14T12:50:56;99240.47;;;13.73;36.42
38880;BME280;25887;30.194;-97.880;2023-03-14T12:56:02;99244.75;;;13.74;36.43
38880;BME280;25887;30.194;-97.880;2023-03-14T12:58:37;99247.34;;;13.74;36.45
38880;BME280;25887;30.194;-97.880;2023-03-14T13:01:06;99254.22;;;13.75;36.28
38880;BME280;25887;30.194;-97.880;2023-03-14T13:06:45;99253.41;;;13.78;36.32
38880;BME280;25887;30.194;-97.880;2023-03-14T13:08:57;99253.38;;;13.79;36.43
38880;BME280;25887;30.194;-97.880;2023-03-14T13:11:24;99261.13;;;13.81;36.62
38880;BME280;25887;30.194;-97.880;2023-03-14T13:14:00;99253.41;;;13.85;36.55
38880;BME280;25887;30.194;-97.880;2023-03-14T13:16:27;99274.06;;;13.85;36.39
38880;BME280;25887;30.194;-97.880;2023-03-14T13:19:11;99276.63;;;13.91;36.28
38880;BME280;25887;30.194;-97.880;2023-03-14T13:21:41;99288.69;;;13.92;36.26
38880;BME280;25887;30.194;-97.880;2023-03-14T13:24:26;99278.38;;;13.97;36.68
38880;BME280;25887;30.194;-97.880;2023-03-14T13:26:56;99280.97;;;14.03;36.47
38880;BME280;25887;30.194;-97.880;2023-03-14T13:29:32;99286.13;;;14.06;36.34
38880;BME280;25887;30.194;-97.880;2023-03-14T13:32:01;99279.22;;;14.05;36.97
38880;BME280;25887;30.194;-97.880;2023-03-14T13:34:33;99291.31;;;14.09;36.77
38880;BME280;25887;30.194;-97.880;2023-03-14T13:37:00;99293.88;;;14.11;36.44
38880;BME280;25887;30.194;-97.880;2023-03-14T13:39:27;99289.56;;;14.14;36.60
38880;BME280;25887;30.194;-97.880;2023-03-14T13:42:05;99284.38;;;14.23;36.84
38880;BME280;25887;30.194;-97.880;2023-03-14T13:44:39;99285.25;;;14.36;36.35
38880;BME280;25887;30.194;-97.880;2023-03-14T13:47:15;99281.84;;;14.48;36.66
38880;BME280;25887;30.194;-97.880;2023-03-14T13:49:43;99280.94;;;14.72;36.35
38880;BME280;25887;30.194;-97.880;2023-03-14T13:52:24;99280.91;;;14.78;36.42
38880;BME280;25887;30.194;-97.880;2023-03-14T13:54:55;99286.97;;;14.72;36.43
38880;BME280;25887;30.194;-97.880;2023-03-14T13:57:21;99284.38;;;14.69;36.68
38880;BME280;25887;30.194;-97.880;2023-03-14T14:00:06;99282.66;;;14.71;36.45
38880;BME280;25887;30.194;-97.880;2023-03-14T14:02:37;99280.91;;;14.70;36.44
38880;BME280;25887;30.194;-97.880;2023-03-14T14:05:04;99288.69;;;14.72;36.24
38880;BME280;25887;30.194;-97.880;2023-03-14T14:07:31;99299.03;;;14.75;36.84
38880;BME280;25887;30.194;-97.880;2023-03-14T14:09:59;99288.66;;;14.76;36.68
38880;BME280;25887;30.194;-97.880;2023-03-14T14:12:35;99290.41;;;14.79;36.62
38880;BME280;25887;30.194;-97.880;2023-03-14T14:15:06;99285.22;;;14.82;36.70
38880;BME280;25887;30.194;-97.880;2023-03-14T14:17:43;99297.28;;;14.89;36.77
38880;BME280;25887;30.194;-97.880;2023-03-14T14:20:21;99299.00;;;14.95;36.65
38880;BME280;25887;30.194;-97.880;2023-03-14T14:22:49;99307.59;;;14.97;36.72
38880;BME280;25887;30.194;-97.880;2023-03-14T14:25:16;99305.84;;;15.03;36.46
38880;BME280;25887;30.194;-97.880;2023-03-14T14:27:47;99307.56;;;15.08;36.61
38880;BME280;25887;30.194;-97.880;2023-03-14T14:32:50;99305.81;;;15.14;36.79
38880;BME280;25887;30.194;-97.880;2023-03-14T14:35:34;99313.56;;;15.16;36.56
38880;BME280;25887;30.194;-97.880;2023-03-14T14:38:01;99317.00;;;15.21;36.52
38880;BME280;25887;30.194;-97.880;2023-03-14T14:40:30;99317.00;;;15.25;36.94
38880;BME280;25887;30.194;-97.880;2023-03-14T14:43:04;99324.72;;;15.31;36.36